Whitewater, Colorado
Current Conditions -  °F | °C
As of 12:53 AM on Thursday 27 Nov 2014 (Local Time) from KGJT Reporting Station
Clear Clear  
Wind Chill: -5°   Ceiling: Unl
Heat Index: -1°   Visibility: 10mi
Dew Point: -4°   Wind: 9mph
Humidity: 79%   Direction: 110°ESE
Pressure: 30.45"   Gusts: NA
Location:  38.99°N, 108.45°W
Report Text: KGJT 270753Z AUTO 11008KT 10SM CLR M01/M04 A3045 RMK AO2 SLP311 T10061039
Loading
Personal Weather Stations






























Interactive Weather Map New forecast layout! Learn more

10-Day Weather Forecast

Advertisements
Track Severe Weather on mobile